Search for airport 
image banner adimage banner adimage banner ad
image banner ad

NV64 - Swanson Ranch 3

Located in Battle Mountain, United States

ICAO - NV64, IATA -

Data provided by Airmate  

General information

Coordinates: N40°0'30" W117°23'31"
Elevation is 4940 feet MSL.
Magnetic variation is 16° East
View others Airports in Nevada

Operational data

Special qualification required
Current time UTC:
Current local time:
Weather at : KTMT - Austin ( 62 km )
METAR: KTMT 131055Z AUTO 00000KT 10SM CLR 04/M04 A3006 RMK AO2 T00381044
View NOTAMs / SUP AIP / TFR affecting this airport [VIEW]
Communications frequencies: [VIEW]

Runways:

RWY identifierQFULength (ft)Width (ft)SurfaceLDA (ft)
16250050GRAVEL
34250050GRAVEL

Airport contact information

Address: Battle Mountain United States

Satellite view of NV64